sensor_id;sensor_type;location;lat;lon;timestamp;P1;durP1;ratioP1;P2;durP2;ratioP2
67717;SDS011;54511;47.532;19.180;2023-06-22T00:01:02;2.60;;;1.67;;
67717;SDS011;54511;47.532;19.180;2023-06-22T00:03:29;2.53;;;1.48;;
67717;SDS011;54511;47.532;19.180;2023-06-22T00:05:56;2.70;;;1.60;;
67717;SDS011;54511;47.532;19.180;2023-06-22T00:08:23;3.35;;;2.00;;
67717;SDS011;54511;47.532;19.180;2023-06-22T00:10:52;9.05;;;2.05;;
67717;SDS011;54511;47.532;19.180;2023-06-22T00:13:19;3.42;;;1.70;;
67717;SDS011;54511;47.532;19.180;2023-06-22T00:15:46;2.87;;;1.58;;
67717;SDS011;54511;47.532;19.180;2023-06-22T00:18:14;3.47;;;1.40;;
67717;SDS011;54511;47.532;19.180;2023-06-22T00:20:41;2.12;;;1.33;;
67717;SDS011;54511;47.532;19.180;2023-06-22T00:23:08;1.52;;;1.17;;
67717;SDS011;54511;47.532;19.180;2023-06-22T00:25:38;8.07;;;1.67;;
67717;SDS011;54511;47.532;19.180;2023-06-22T00:28:07;2.80;;;1.48;;
67717;SDS011;54511;47.532;19.180;2023-06-22T00:30:34;1.83;;;1.27;;
67717;SDS011;54511;47.532;19.180;2023-06-22T00:33:03;3.70;;;1.55;;
67717;SDS011;54511;47.532;19.180;2023-06-22T00:35:32;5.60;;;1.70;;
67717;SDS011;54511;47.532;19.180;2023-06-22T00:38:00;2.55;;;1.60;;
67717;SDS011;54511;47.532;19.180;2023-06-22T00:40:28;7.53;;;2.10;;
67717;SDS011;54511;47.532;19.180;2023-06-22T00:45:27;2.90;;;1.45;;
67717;SDS011;54511;47.532;19.180;2023-06-22T00:47:57;3.42;;;1.52;;
67717;SDS011;54511;47.532;19.180;2023-06-22T00:50:25;3.50;;;1.70;;
67717;SDS011;54511;47.532;19.180;2023-06-22T00:52:54;4.15;;;1.37;;
67717;SDS011;54511;47.532;19.180;2023-06-22T00:55:23;5.73;;;1.67;;
67717;SDS011;54511;47.532;19.180;2023-06-22T00:57:51;3.37;;;1.67;;
67717;SDS011;54511;47.532;19.180;2023-06-22T01:00:21;3.50;;;1.62;;
67717;SDS011;54511;47.532;19.180;2023-06-22T01:02:51;3.03;;;1.67;;
67717;SDS011;54511;47.532;19.180;2023-06-22T01:05:19;3.65;;;2.05;;
67717;SDS011;54511;47.532;19.180;2023-06-22T01:08:00;5.62;;;1.62;;
67717;SDS011;54511;47.532;19.180;2023-06-22T01:13:57;2.80;;;1.70;;
67717;SDS011;54511;47.532;19.180;2023-06-22T01:16:27;3.75;;;1.85;;
67717;SDS011;54511;47.532;19.180;2023-06-22T01:18:57;4.28;;;1.98;;
67717;SDS011;54511;47.532;19.180;2023-06-22T01:21:27;2.85;;;1.42;;
67717;SDS011;54511;47.532;19.180;2023-06-22T01:23:57;2.45;;;1.40;;
67717;SDS011;54511;47.532;19.180;2023-06-22T01:26:31;3.70;;;1.60;;
67717;SDS011;54511;47.532;19.180;2023-06-22T01:29:04;4.87;;;2.15;;
67717;SDS011;54511;47.532;19.180;2023-06-22T01:31:32;2.42;;;1.33;;
67717;SDS011;54511;47.532;19.180;2023-06-22T01:34:02;2.10;;;1.33;;
67717;SDS011;54511;47.532;19.180;2023-06-22T01:36:31;2.90;;;1.83;;
67717;SDS011;54511;47.532;19.180;2023-06-22T01:38:59;3.20;;;1.62;;
67717;SDS011;54511;47.532;19.180;2023-06-22T01:41:26;4.50;;;2.00;;
67717;SDS011;54511;47.532;19.180;2023-06-22T01:43:55;4.32;;;2.03;;
67717;SDS011;54511;47.532;19.180;2023-06-22T01:46:24;3.45;;;1.85;;
67717;SDS011;54511;47.532;19.180;2023-06-22T01:48:51;4.37;;;2.03;;
67717;SDS011;54511;47.532;19.180;2023-06-22T01:51:19;3.67;;;1.40;;
67717;SDS011;54511;47.532;19.180;2023-06-22T01:53:46;3.03;;;1.87;;
67717;SDS011;54511;47.532;19.180;2023-06-22T01:56:13;2.47;;;1.48;;
67717;SDS011;54511;47.532;19.180;2023-06-22T01:58:44;1.95;;;1.27;;
67717;SDS011;54511;47.532;19.180;2023-06-22T02:01:15;1.87;;;1.37;;
67717;SDS011;54511;47.532;19.180;2023-06-22T02:03:50;1.87;;;1.58;;
67717;SDS011;54511;47.532;19.180;2023-06-22T02:06:23;1.85;;;1.45;;
67717;SDS011;54511;47.532;19.180;2023-06-22T02:08:55;4.53;;;1.92;;
67717;SDS011;54511;47.532;19.180;2023-06-22T02:11:23;4.18;;;1.80;;
67717;SDS011;54511;47.532;19.180;2023-06-22T02:13:52;5.53;;;2.15;;
67717;SDS011;54511;47.532;19.180;2023-06-22T02:16:20;4.03;;;1.62;;
67717;SDS011;54511;47.532;19.180;2023-06-22T02:18:49;6.00;;;1.50;;
67717;SDS011;54511;47.532;19.180;2023-06-22T02:21:19;8.27;;;1.40;;
67717;SDS011;54511;47.532;19.180;2023-06-22T02:23:46;3.22;;;1.77;;
67717;SDS011;54511;47.532;19.180;2023-06-22T02:26:13;3.20;;;1.70;;
67717;SDS011;54511;47.532;19.180;2023-06-22T02:28:42;2.10;;;1.70;;
67717;SDS011;54511;47.532;19.180;2023-06-22T02:31:09;1.95;;;1.17;;
67717;SDS011;54511;47.532;19.180;2023-06-22T02:33:36;3.22;;;1.50;;
67717;SDS011;54511;47.532;19.180;2023-06-22T02:36:05;4.35;;;1.77;;
67717;SDS011;54511;47.532;19.180;2023-06-22T02:38:34;4.97;;;1.48;;
67717;SDS011;54511;47.532;19.180;2023-06-22T02:41:01;3.37;;;1.67;;
67717;SDS011;54511;47.532;19.180;2023-06-22T02:43:28;3.37;;;1.42;;
67717;SDS011;54511;47.532;19.180;2023-06-22T02:45:55;3.70;;;1.92;;
67717;SDS011;54511;47.532;19.180;2023-06-22T02:48:22;3.12;;;1.85;;
67717;SDS011;54511;47.532;19.180;2023-06-22T02:50:49;3.85;;;1.73;;
67717;SDS011;54511;47.532;19.180;2023-06-22T02:53:17;4.93;;;1.92;;
67717;SDS011;54511;47.532;19.180;2023-06-22T02:55:44;3.12;;;1.60;;
67717;SDS011;54511;47.532;19.180;2023-06-22T02:58:11;3.30;;;1.33;;
67717;SDS011;54511;47.532;19.180;2023-06-22T03:00:38;2.97;;;1.58;;
67717;SDS011;54511;47.532;19.180;2023-06-22T03:03:05;7.78;;;1.83;;
67717;SDS011;54511;47.532;19.180;2023-06-22T03:05:32;4.15;;;1.55;;
67717;SDS011;54511;47.532;19.180;2023-06-22T03:08:00;4.50;;;1.98;;
67717;SDS011;54511;47.532;19.180;2023-06-22T03:10:28;4.93;;;1.75;;
67717;SDS011;54511;47.532;19.180;2023-06-22T03:12:55;4.35;;;1.75;;
67717;SDS011;54511;47.532;19.180;2023-06-22T03:15:22;4.45;;;1.85;;
67717;SDS011;54511;47.532;19.180;2023-06-22T03:17:50;2.55;;;1.52;;
67717;SDS011;54511;47.532;19.180;2023-06-22T03:20:16;2.12;;;1.33;;
67717;SDS011;54511;47.532;19.180;2023-06-22T03:22:44;5.25;;;2.12;;
67717;SDS011;54511;47.532;19.180;2023-06-22T03:25:12;6.53;;;2.30;;
67717;SDS011;54511;47.532;19.180;2023-06-22T03:27:41;3.20;;;1.67;;
67717;SDS011;54511;47.532;19.180;2023-06-22T03:30:09;2.12;;;1.35;;
67717;SDS011;54511;47.532;19.180;2023-06-22T03:32:37;4.97;;;1.90;;
67717;SDS011;54511;47.532;19.180;2023-06-22T03:35:04;1.90;;;1.15;;
67717;SDS011;54511;47.532;19.180;2023-06-22T03:37:32;3.22;;;1.25;;
67717;SDS011;54511;47.532;19.180;2023-06-22T03:39:59;3.55;;;1.45;;
67717;SDS011;54511;47.532;19.180;2023-06-22T03:42:26;3.85;;;1.62;;
67717;SDS011;54511;47.532;19.180;2023-06-22T03:44:54;4.78;;;2.03;;
67717;SDS011;54511;47.532;19.180;2023-06-22T03:47:21;2.87;;;1.40;;
67717;SDS011;54511;47.532;19.180;2023-06-22T03:49:48;4.22;;;1.60;;
67717;SDS011;54511;47.532;19.180;2023-06-22T03:52:20;3.25;;;1.33;;
67717;SDS011;54511;47.532;19.180;2023-06-22T03:54:47;4.15;;;1.77;;
67717;SDS011;54511;47.532;19.180;2023-06-22T03:57:14;6.80;;;1.90;;
67717;SDS011;54511;47.532;19.180;2023-06-22T03:59:42;4.40;;;2.20;;
67717;SDS011;54511;47.532;19.180;2023-06-22T04:02:10;2.83;;;1.77;;
67717;SDS011;54511;47.532;19.180;2023-06-22T04:07:06;2.15;;;1.20;;
67717;SDS011;54511;47.532;19.180;2023-06-22T04:09:34;4.45;;;1.75;;
67717;SDS011;54511;47.532;19.180;2023-06-22T04:12:01;4.40;;;1.85;;
67717;SDS011;54511;47.532;19.180;2023-06-22T04:14:28;5.93;;;1.70;;
67717;SDS011;54511;47.532;19.180;2023-06-22T04:16:55;2.42;;;1.20;;
67717;SDS011;54511;47.532;19.180;2023-06-22T04:19:23;6.60;;;1.48;;
67717;SDS011;54511;47.532;19.180;2023-06-22T04:21:50;2.65;;;1.77;;
67717;SDS011;54511;47.532;19.180;2023-06-22T04:24:17;2.72;;;1.40;;
67717;SDS011;54511;47.532;19.180;2023-06-22T04:26:45;4.40;;;1.45;;
67717;SDS011;54511;47.532;19.180;2023-06-22T04:29:13;4.95;;;1.83;;
67717;SDS011;54511;47.532;19.180;2023-06-22T04:31:40;3.92;;;1.60;;
67717;SDS011;54511;47.532;19.180;2023-06-22T04:34:09;5.25;;;2.10;;
67717;SDS011;54511;47.532;19.180;2023-06-22T04:36:40;5.10;;;1.83;;
67717;SDS011;54511;47.532;19.180;2023-06-22T04:39:07;3.93;;;2.03;;
67717;SDS011;54511;47.532;19.180;2023-06-22T04:41:35;3.30;;;1.85;;
67717;SDS011;54511;47.532;19.180;2023-06-22T04:44:11;3.85;;;1.92;;
67717;SDS011;54511;47.532;19.180;2023-06-22T04:46:49;4.60;;;2.08;;
67717;SDS011;54511;47.532;19.180;2023-06-22T04:49:19;2.95;;;1.80;;
67717;SDS011;54511;47.532;19.180;2023-06-22T04:51:48;1.50;;;1.35;;
67717;SDS011;54511;47.532;19.180;2023-06-22T04:54:24;3.72;;;2.20;;
67717;SDS011;54511;47.532;19.180;2023-06-22T04:56:51;5.47;;;2.22;;
67717;SDS011;54511;47.532;19.180;2023-06-22T04:59:22;3.50;;;1.87;;
67717;SDS011;54511;47.532;19.180;2023-06-22T05:02:09;2.70;;;1.90;;
67717;SDS011;54511;47.532;19.180;2023-06-22T05:04:39;4.43;;;2.20;;
67717;SDS011;54511;47.532;19.180;2023-06-22T05:07:11;3.92;;;2.12;;
67717;SDS011;54511;47.532;19.180;2023-06-22T05:10:00;6.43;;;2.25;;
67717;SDS011;54511;47.532;19.180;2023-06-22T05:12:27;5.65;;;1.95;;
67717;SDS011;54511;47.532;19.180;2023-06-22T05:15:13;6.05;;;2.20;;
67717;SDS011;54511;47.532;19.180;2023-06-22T05:17:45;6.05;;;1.87;;
67717;SDS011;54511;47.532;19.180;2023-06-22T05:20:14;4.28;;;2.15;;
67717;SDS011;54511;47.532;19.180;2023-06-22T05:22:45;2.47;;;1.67;;
67717;SDS011;54511;47.532;19.180;2023-06-22T05:25:12;3.60;;;1.90;;
67717;SDS011;54511;47.532;19.180;2023-06-22T05:28:00;3.92;;;1.87;;
67717;SDS011;54511;47.532;19.180;2023-06-22T05:30:36;7.00;;;1.77;;
67717;SDS011;54511;47.532;19.180;2023-06-22T05:33:03;4.45;;;1.95;;
67717;SDS011;54511;47.532;19.180;2023-06-22T05:35:31;4.97;;;2.53;;
67717;SDS011;54511;47.532;19.180;2023-06-22T05:37:59;3.05;;;1.70;;
67717;SDS011;54511;47.532;19.180;2023-06-22T05:40:26;3.28;;;2.00;;
67717;SDS011;54511;47.532;19.180;2023-06-22T05:42:53;3.78;;;2.10;;
67717;SDS011;54511;47.532;19.180;2023-06-22T05:45:20;6.90;;;2.53;;
67717;SDS011;54511;47.532;19.180;2023-06-22T05:47:48;6.40;;;2.17;;
67717;SDS011;54511;47.532;19.180;2023-06-22T05:50:15;4.75;;;2.20;;
67717;SDS011;54511;47.532;19.180;2023-06-22T05:52:42;5.40;;;2.47;;
67717;SDS011;54511;47.532;19.180;2023-06-22T05:55:12;5.22;;;2.40;;
67717;SDS011;54511;47.532;19.180;2023-06-22T05:57:40;6.15;;;2.62;;
67717;SDS011;54511;47.532;19.180;2023-06-22T06:00:08;4.03;;;2.28;;
67717;SDS011;54511;47.532;19.180;2023-06-22T06:02:37;6.07;;;2.70;;
67717;SDS011;54511;47.532;19.180;2023-06-22T06:05:08;6.93;;;2.30;;
67717;SDS011;54511;47.532;19.180;2023-06-22T06:07:36;4.65;;;1.87;;
67717;SDS011;54511;47.532;19.180;2023-06-22T06:10:03;3.97;;;2.05;;
67717;SDS011;54511;47.532;19.180;2023-06-22T06:12:33;4.47;;;2.17;;
67717;SDS011;54511;47.532;19.180;2023-06-22T06:15:00;5.07;;;1.98;;
67717;SDS011;54511;47.532;19.180;2023-06-22T06:17:27;6.25;;;2.25;;
67717;SDS011;54511;47.532;19.180;2023-06-22T06:19:55;3.85;;;2.37;;
67717;SDS011;54511;47.532;19.180;2023-06-22T06:22:22;3.47;;;1.92;;
67717;SDS011;54511;47.532;19.180;2023-06-22T06:24:49;8.68;;;2.58;;
67717;SDS011;54511;47.532;19.180;2023-06-22T06:27:19;4.70;;;1.92;;
67717;SDS011;54511;47.532;19.180;2023-06-22T06:29:55;4.72;;;2.10;;
67717;SDS011;54511;47.532;19.180;2023-06-22T06:32:23;3.60;;;1.90;;
67717;SDS011;54511;47.532;19.180;2023-06-22T06:34:49;5.37;;;2.47;;
67717;SDS011;54511;47.532;19.180;2023-06-22T06:37:16;4.75;;;2.10;;
67717;SDS011;54511;47.532;19.180;2023-06-22T06:39:43;3.97;;;2.40;;
67717;SDS011;54511;47.532;19.180;2023-06-22T06:42:12;7.18;;;2.30;;
67717;SDS011;54511;47.532;19.180;2023-06-22T06:44:39;3.37;;;1.58;;
67717;SDS011;54511;47.532;19.180;2023-06-22T06:47:08;6.18;;;2.78;;
67717;SDS011;54511;47.532;19.180;2023-06-22T06:49:36;7.18;;;2.15;;
67717;SDS011;54511;47.532;19.180;2023-06-22T06:52:04;3.30;;;1.80;;
67717;SDS011;54511;47.532;19.180;2023-06-22T06:54:32;3.50;;;1.83;;
67717;SDS011;54511;47.532;19.180;2023-06-22T06:57:00;5.40;;;2.15;;
67717;SDS011;54511;47.532;19.180;2023-06-22T06:59:28;3.53;;;1.67;;
67717;SDS011;54511;47.532;19.180;2023-06-22T07:01:55;2.58;;;1.45;;
67717;SDS011;54511;47.532;19.180;2023-06-22T07:04:24;3.78;;;1.73;;
67717;SDS011;54511;47.532;19.180;2023-06-22T07:06:53;3.70;;;2.10;;
67717;SDS011;54511;47.532;19.180;2023-06-22T07:09:20;8.38;;;1.52;;
67717;SDS011;54511;47.532;19.180;2023-06-22T07:11:48;3.78;;;1.85;;
67717;SDS011;54511;47.532;19.180;2023-06-22T07:14:15;3.78;;;1.55;;
67717;SDS011;54511;47.532;19.180;2023-06-22T07:16:42;2.25;;;1.10;;
67717;SDS011;54511;47.532;19.180;2023-06-22T07:19:10;3.37;;;1.30;;
67717;SDS011;54511;47.532;19.180;2023-06-22T07:21:39;2.45;;;1.77;;
67717;SDS011;54511;47.532;19.180;2023-06-22T07:24:06;4.93;;;1.80;;
67717;SDS011;54511;47.532;19.180;2023-06-22T07:26:34;2.70;;;1.55;;
67717;SDS011;54511;47.532;19.180;2023-06-22T07:29:01;2.87;;;1.65;;
67717;SDS011;54511;47.532;19.180;2023-06-22T07:31:29;2.53;;;1.25;;
67717;SDS011;54511;47.532;19.180;2023-06-22T07:33:59;3.28;;;1.12;;
67717;SDS011;54511;47.532;19.180;2023-06-22T07:36:26;4.32;;;1.33;;
67717;SDS011;54511;47.532;19.180;2023-06-22T07:38:56;3.12;;;1.33;;
67717;SDS011;54511;47.532;19.180;2023-06-22T07:41:23;3.12;;;1.40;;
67717;SDS011;54511;47.532;19.180;2023-06-22T07:43:50;2.72;;;1.30;;
67717;SDS011;54511;47.532;19.180;2023-06-22T07:46:34;1.90;;;1.02;;
67717;SDS011;54511;47.532;19.180;2023-06-22T07:49:01;2.92;;;1.25;;
67717;SDS011;54511;47.532;19.180;2023-06-22T07:51:30;2.90;;;1.20;;
67717;SDS011;54511;47.532;19.180;2023-06-22T07:53:59;1.65;;;1.20;;
67717;SDS011;54511;47.532;19.180;2023-06-22T07:56:31;2.08;;;1.15;;
67717;SDS011;54511;47.532;19.180;2023-06-22T07:58:58;2.08;;;1.12;;
67717;SDS011;54511;47.532;19.180;2023-06-22T08:01:27;2.45;;;1.20;;
67717;SDS011;54511;47.532;19.180;2023-06-22T08:03:53;3.37;;;1.40;;
67717;SDS011;54511;47.532;19.180;2023-06-22T08:06:21;5.25;;;1.50;;
67717;SDS011;54511;47.532;19.180;2023-06-22T08:08:48;4.22;;;1.35;;
67717;SDS011;54511;47.532;19.180;2023-06-22T08:11:21;2.92;;;1.52;;
67717;SDS011;54511;47.532;19.180;2023-06-22T08:13:50;3.90;;;1.60;;
67717;SDS011;54511;47.532;19.180;2023-06-22T08:18:47;1.95;;;1.30;;
67717;SDS011;54511;47.532;19.180;2023-06-22T08:21:14;2.42;;;1.42;;
67717;SDS011;54511;47.532;19.180;2023-06-22T08:23:44;1.62;;;1.12;;
67717;SDS011;54511;47.532;19.180;2023-06-22T08:26:12;3.75;;;1.27;;
67717;SDS011;54511;47.532;19.180;2023-06-22T08:28:43;2.60;;;1.53;;
67717;SDS011;54511;47.532;19.180;2023-06-22T08:31:11;3.17;;;1.60;;
67717;SDS011;54511;47.532;19.180;2023-06-22T08:33:40;3.85;;;1.67;;
67717;SDS011;54511;47.532;19.180;2023-06-22T08:36:08;4.60;;;1.70;;
67717;SDS011;54511;47.532;19.180;2023-06-22T08:38:36;3.42;;;1.95;;
67717;SDS011;54511;47.532;19.180;2023-06-22T08:41:03;2.78;;;1.75;;
67717;SDS011;54511;47.532;19.180;2023-06-22T08:43:31;3.87;;;1.98;;
67717;SDS011;54511;47.532;19.180;2023-06-22T08:45:59;4.37;;;2.15;;
67717;SDS011;54511;47.532;19.180;2023-06-22T08:49:26;2.22;;;1.60;;
67717;SDS011;54511;47.532;19.180;2023-06-22T08:52:01;4.53;;;2.22;;
67717;SDS011;54511;47.532;19.180;2023-06-22T08:54:28;4.53;;;2.10;;
67717;SDS011;54511;47.532;19.180;2023-06-22T08:56:59;3.70;;;2.10;;
67717;SDS011;54511;47.532;19.180;2023-06-22T08:59:26;3.60;;;1.90;;
67717;SDS011;54511;47.532;19.180;2023-06-22T09:01:55;4.37;;;2.30;;
67717;SDS011;54511;47.532;19.180;2023-06-22T09:05:03;3.42;;;2.17;;
67717;SDS011;54511;47.532;19.180;2023-06-22T09:08:10;8.75;;;2.62;;
67717;SDS011;54511;47.532;19.180;2023-06-22T09:10:59;5.60;;;2.33;;
67717;SDS011;54511;47.532;19.180;2023-06-22T09:13:30;6.57;;;2.45;;
67717;SDS011;54511;47.532;19.180;2023-06-22T09:16:37;7.03;;;2.50;;
67717;SDS011;54511;47.532;19.180;2023-06-22T09:19:23;9.90;;;2.40;;
67717;SDS011;54511;47.532;19.180;2023-06-22T09:22:12;5.85;;;2.60;;
67717;SDS011;54511;47.532;19.180;2023-06-22T09:25:00;7.00;;;2.45;;
67717;SDS011;54511;47.532;19.180;2023-06-22T09:27:47;5.10;;;2.60;;
67717;SDS011;54511;47.532;19.180;2023-06-22T09:30:34;4.20;;;2.28;;
67717;SDS011;54511;47.532;19.180;2023-06-22T09:33:02;4.20;;;2.40;;
67717;SDS011;54511;47.532;19.180;2023-06-22T09:35:51;4.20;;;2.37;;
67717;SDS011;54511;47.532;19.180;2023-06-22T09:38:38;4.28;;;2.55;;
67717;SDS011;54511;47.532;19.180;2023-06-22T09:41:07;6.47;;;2.60;;
67717;SDS011;54511;47.532;19.180;2023-06-22T09:43:35;4.87;;;2.93;;
67717;SDS011;54511;47.532;19.180;2023-06-22T09:46:06;5.30;;;3.03;;
67717;SDS011;54511;47.532;19.180;2023-06-22T09:48:38;6.82;;;3.08;;
67717;SDS011;54511;47.532;19.180;2023-06-22T09:51:09;4.62;;;2.87;;
67717;SDS011;54511;47.532;19.180;2023-06-22T09:53:58;4.65;;;2.83;;
67717;SDS011;54511;47.532;19.180;2023-06-22T09:56:25;5.57;;;3.42;;
67717;SDS011;54511;47.532;19.180;2023-06-22T09:58:53;7.87;;;2.90;;
67717;SDS011;54511;47.532;19.180;2023-06-22T10:01:40;4.68;;;3.10;;
67717;SDS011;54511;47.532;19.180;2023-06-22T10:04:27;5.50;;;3.03;;
67717;SDS011;54511;47.532;19.180;2023-06-22T10:06:57;5.93;;;3.12;;
67717;SDS011;54511;47.532;19.180;2023-06-22T10:09:43;6.72;;;3.05;;
67717;SDS011;54511;47.532;19.180;2023-06-22T10:12:21;7.40;;;3.12;;
67717;SDS011;54511;47.532;19.180;2023-06-22T10:14:49;5.93;;;3.20;;
67717;SDS011;54511;47.532;19.180;2023-06-22T10:17:36;4.32;;;3.12;;
67717;SDS011;54511;47.532;19.180;2023-06-22T10:20:05;9.35;;;3.65;;
67717;SDS011;54511;47.532;19.180;2023-06-22T10:22:54;11.45;;;3.30;;
67717;SDS011;54511;47.532;19.180;2023-06-22T10:25:41;7.15;;;3.53;;
67717;SDS011;54511;47.532;19.180;2023-06-22T10:28:18;7.80;;;3.37;;
67717;SDS011;54511;47.532;19.180;2023-06-22T10:30:45;4.90;;;3.45;;
67717;SDS011;54511;47.532;19.180;2023-06-22T10:33:21;5.25;;;2.83;;
67717;SDS011;54511;47.532;19.180;2023-06-22T10:36:08;4.75;;;3.30;;
67717;SDS011;54511;47.532;19.180;2023-06-22T10:38:36;5.30;;;3.25;;
67717;SDS011;54511;47.532;19.180;2023-06-22T10:41:06;7.10;;;3.65;;
67717;SDS011;54511;47.532;19.180;2023-06-22T10:43:33;5.15;;;3.20;;
67717;SDS011;54511;47.532;19.180;2023-06-22T10:46:00;9.23;;;3.20;;
67717;SDS011;54511;47.532;19.180;2023-06-22T10:48:27;5.10;;;2.90;;
67717;SDS011;54511;47.532;19.180;2023-06-22T10:50:57;8.00;;;3.72;;
67717;SDS011;54511;47.532;19.180;2023-06-22T10:53:24;6.15;;;3.70;;
67717;SDS011;54511;47.532;19.180;2023-06-22T10:55:53;5.25;;;3.20;;
67717;SDS011;54511;47.532;19.180;2023-06-22T10:58:38;8.13;;;3.62;;
67717;SDS011;54511;47.532;19.180;2023-06-22T11:01:45;8.05;;;3.70;;
67717;SDS011;54511;47.532;19.180;2023-06-22T11:04:24;5.05;;;3.03;;
67717;SDS011;54511;47.532;19.180;2023-06-22T11:06:52;5.83;;;3.50;;
67717;SDS011;54511;47.532;19.180;2023-06-22T11:09:21;6.15;;;3.85;;
67717;SDS011;54511;47.532;19.180;2023-06-22T11:11:50;4.75;;;2.92;;
67717;SDS011;54511;47.532;19.180;2023-06-22T11:14:57;4.90;;;3.03;;
67717;SDS011;54511;47.532;19.180;2023-06-22T11:17:25;8.18;;;3.80;;
67717;SDS011;54511;47.532;19.180;2023-06-22T11:19:57;7.80;;;3.70;;
67717;SDS011;54511;47.532;19.180;2023-06-22T11:22:26;7.35;;;3.33;;
67717;SDS011;54511;47.532;19.180;2023-06-22T11:24:55;5.95;;;3.20;;
67717;SDS011;54511;47.532;19.180;2023-06-22T11:27:25;7.25;;;3.47;;
67717;SDS011;54511;47.532;19.180;2023-06-22T11:29:52;6.60;;;3.78;;
67717;SDS011;54511;47.532;19.180;2023-06-22T11:32:40;5.35;;;3.15;;
67717;SDS011;54511;47.532;19.180;2023-06-22T11:35:12;5.37;;;3.72;;
67717;SDS011;54511;47.532;19.180;2023-06-22T11:38:35;6.00;;;3.30;;
67717;SDS011;54511;47.532;19.180;2023-06-22T11:41:41;7.80;;;3.70;;
67717;SDS011;54511;47.532;19.180;2023-06-22T11:44:30;5.25;;;2.97;;
67717;SDS011;54511;47.532;19.180;2023-06-22T11:46:58;10.48;;;3.92;;
67717;SDS011;54511;47.532;19.180;2023-06-22T11:49:30;6.60;;;3.62;;
67717;SDS011;54511;47.532;19.180;2023-06-22T11:51:57;5.75;;;3.53;;
67717;SDS011;54511;47.532;19.180;2023-06-22T11:54:29;8.13;;;3.42;;
67717;SDS011;54511;47.532;19.180;2023-06-22T11:56:56;6.37;;;3.22;;
67717;SDS011;54511;47.532;19.180;2023-06-22T11:59:27;6.85;;;3.60;;
67717;SDS011;54511;47.532;19.180;2023-06-22T12:01:55;5.93;;;3.87;;
67717;SDS011;54511;47.532;19.180;2023-06-22T12:04:24;6.25;;;3.83;;
67717;SDS011;54511;47.532;19.180;2023-06-22T12:07:31;9.63;;;3.20;;
67717;SDS011;54511;47.532;19.180;2023-06-22T12:09:59;7.10;;;3.70;;
67717;SDS011;54511;47.532;19.180;2023-06-22T12:12:38;6.93;;;3.30;;
67717;SDS011;54511;47.532;19.180;2023-06-22T12:15:10;7.87;;;3.60;;
67717;SDS011;54511;47.532;19.180;2023-06-22T12:17:39;7.22;;;3.80;;
67717;SDS011;54511;47.532;19.180;2023-06-22T12:20:27;5.90;;;3.62;;
67717;SDS011;54511;47.532;19.180;2023-06-22T12:23:34;5.37;;;3.40;;
67717;SDS011;54511;47.532;19.180;2023-06-22T12:26:23;5.40;;;3.37;;
67717;SDS011;54511;47.532;19.180;2023-06-22T12:28:51;5.93;;;3.50;;
67717;SDS011;54511;47.532;19.180;2023-06-22T12:31:38;6.57;;;3.45;;
67717;SDS011;54511;47.532;19.180;2023-06-22T12:34:26;6.18;;;3.60;;
67717;SDS011;54511;47.532;19.180;2023-06-22T12:36:54;5.07;;;2.83;;
67717;SDS011;54511;47.532;19.180;2023-06-22T12:39:22;6.10;;;3.60;;
67717;SDS011;54511;47.532;19.180;2023-06-22T12:42:10;6.82;;;3.65;;
67717;SDS011;54511;47.532;19.180;2023-06-22T12:44:38;6.85;;;3.87;;
67717;SDS011;54511;47.532;19.180;2023-06-22T12:47:15;6.20;;;3.60;;
67717;SDS011;54511;47.532;19.180;2023-06-22T12:50:20;6.25;;;3.50;;
67717;SDS011;54511;47.532;19.180;2023-06-22T12:53:30;6.30;;;3.22;;
67717;SDS011;54511;47.532;19.180;2023-06-22T12:56:16;4.97;;;3.35;;
67717;SDS011;54511;47.532;19.180;2023-06-22T12:59:03;6.50;;;3.50;;
67717;SDS011;54511;47.532;19.180;2023-06-22T13:01:51;6.68;;;3.60;;
67717;SDS011;54511;47.532;19.180;2023-06-22T13:04:39;5.47;;;3.03;;
67717;SDS011;54511;47.532;19.180;2023-06-22T13:07:08;6.47;;;3.33;;
67717;SDS011;54511;47.532;19.180;2023-06-22T13:10:15;6.90;;;3.60;;
67717;SDS011;54511;47.532;19.180;2023-06-22T13:13:23;5.60;;;3.28;;
67717;SDS011;54511;47.532;19.180;2023-06-22T13:15:52;5.87;;;3.30;;
67717;SDS011;54511;47.532;19.180;2023-06-22T13:18:59;5.28;;;3.47;;
67717;SDS011;54511;47.532;19.180;2023-06-22T13:22:25;5.85;;;3.08;;
67717;SDS011;54511;47.532;19.180;2023-06-22T13:25:38;5.05;;;3.30;;
67717;SDS011;54511;47.532;19.180;2023-06-22T13:28:09;7.53;;;3.55;;
67717;SDS011;54511;47.532;19.180;2023-06-22T13:31:15;6.12;;;3.12;;
67717;SDS011;54511;47.532;19.180;2023-06-22T13:34:02;4.62;;;3.30;;
67717;SDS011;54511;47.532;19.180;2023-06-22T13:36:49;6.60;;;3.58;;
67717;SDS011;54511;47.532;19.180;2023-06-22T13:39:57;5.90;;;3.53;;
67717;SDS011;54511;47.532;19.180;2023-06-22T13:42:30;6.07;;;3.15;;
67717;SDS011;54511;47.532;19.180;2023-06-22T13:45:37;7.05;;;3.20;;
67717;SDS011;54511;47.532;19.180;2023-06-22T13:48:10;6.80;;;3.47;;
67717;SDS011;54511;47.532;19.180;2023-06-22T13:50:57;5.62;;;2.95;;
67717;SDS011;54511;47.532;19.180;2023-06-22T13:54:04;7.22;;;3.10;;
67717;SDS011;54511;47.532;19.180;2023-06-22T13:56:53;5.07;;;3.05;;
67717;SDS011;54511;47.532;19.180;2023-06-22T14:00:00;5.40;;;2.90;;
67717;SDS011;54511;47.532;19.180;2023-06-22T14:03:27;5.40;;;2.90;;
67717;SDS011;54511;47.532;19.180;2023-06-22T14:05:56;6.05;;;3.10;;
67717;SDS011;54511;47.532;19.180;2023-06-22T14:08:23;6.60;;;3.30;;
67717;SDS011;54511;47.532;19.180;2023-06-22T14:11:10;5.45;;;3.37;;
67717;SDS011;54511;47.532;19.180;2023-06-22T14:13:39;5.25;;;3.40;;
67717;SDS011;54511;47.532;19.180;2023-06-22T14:16:48;7.45;;;4.00;;
67717;SDS011;54511;47.532;19.180;2023-06-22T14:19:16;6.35;;;3.70;;
67717;SDS011;54511;47.532;19.180;2023-06-22T14:22:43;5.37;;;3.00;;
67717;SDS011;54511;47.532;19.180;2023-06-22T14:25:47;5.12;;;3.22;;
67717;SDS011;54511;47.532;19.180;2023-06-22T14:28:14;5.78;;;3.15;;
67717;SDS011;54511;47.532;19.180;2023-06-22T14:31:44;4.30;;;2.87;;
67717;SDS011;54511;47.532;19.180;2023-06-22T14:34:14;6.70;;;3.30;;
67717;SDS011;54511;47.532;19.180;2023-06-22T14:36:41;7.20;;;3.60;;
67717;SDS011;54511;47.532;19.180;2023-06-22T14:39:28;5.78;;;3.30;;
67717;SDS011;54511;47.532;19.180;2023-06-22T14:42:13;4.70;;;3.22;;
67717;SDS011;54511;47.532;19.180;2023-06-22T14:45:02;6.10;;;3.50;;
67717;SDS011;54511;47.532;19.180;2023-06-22T14:48:14;4.30;;;2.92;;
67717;SDS011;54511;47.532;19.180;2023-06-22T14:51:01;7.70;;;3.62;;
67717;SDS011;54511;47.532;19.180;2023-06-22T14:53:48;5.72;;;3.12;;
67717;SDS011;54511;47.532;19.180;2023-06-22T14:56:38;7.90;;;2.93;;
67717;SDS011;54511;47.532;19.180;2023-06-22T15:00:06;4.03;;;2.70;;
67717;SDS011;54511;47.532;19.180;2023-06-22T15:02:53;4.03;;;2.78;;
67717;SDS011;54511;47.532;19.180;2023-06-22T15:06:09;6.40;;;3.58;;
67717;SDS011;54511;47.532;19.180;2023-06-22T15:09:06;5.60;;;3.50;;
67717;SDS011;54511;47.532;19.180;2023-06-22T15:11:41;4.72;;;3.20;;
67717;SDS011;54511;47.532;19.180;2023-06-22T15:14:28;4.18;;;2.92;;
67717;SDS011;54511;47.532;19.180;2023-06-22T15:16:56;6.00;;;3.35;;
67717;SDS011;54511;47.532;19.180;2023-06-22T15:19:45;5.85;;;3.60;;
67717;SDS011;54511;47.532;19.180;2023-06-22T15:22:32;7.60;;;3.37;;
67717;SDS011;54511;47.532;19.180;2023-06-22T15:25:27;5.78;;;3.33;;
67717;SDS011;54511;47.532;19.180;2023-06-22T15:28:14;6.12;;;3.10;;
67717;SDS011;54511;47.532;19.180;2023-06-22T15:30:46;7.05;;;3.70;;